Wednesday, April 25, 2018, 5:05 AM EDT
Back to Local

KASH, Nashua, Boire Field Airport

Location: Nashua, NH, United States Lat: 42.782
Local Time: 5:05 AM EDT ( 9:05 GMT) Lon: -71.515
Time Zone: US/Eastern Elev: 200 ft

Show me the last for .
Show Decoded

2018-04-25 03:56 METAR KASH 250756Z AUTO 00000KT 10SM SCT031 11/04 A3016 RMK AO2 SLP225 T01060039
                 =
2018-04-25 02:56 METAR KASH 250656Z AUTO 00000KT 10SM FEW039 11/03 A3019 RMK AO2 SLP233 T01110033
                 =
2018-04-25 01:56 METAR KASH 250556Z AUTO 16004KT 10SM BKN037 OVC055 12/03 A3021 RMK AO2 SLP239
                 T01170028 10161 20117 58012 =
2018-04-25 00:56 METAR KASH 250456Z AUTO VRB04KT 10SM SCT070 12/02 A3023 RMK AO2 SLP247 T01170022
                 =
2018-04-24 23:56 METAR KASH 250356Z AUTO 18004KT 10SM FEW070 13/03 A3024 RMK AO2 SLP251 T01280033
                 402220000 =
2018-04-24 22:56 METAR KASH 250256Z AUTO VRB04KT 10SM CLR 13/04 A3024 RMK AO2 SLP251 T01330039
                 50008 =
2018-04-24 21:56 METAR KASH 250156Z AUTO VRB04KT 10SM CLR 14/02 A3024 RMK AO2 SLP252 T01390022 =
2018-04-24 20:56 METAR KASH 250056Z 18007KT 10SM CLR 15/01 A3024 RMK AO2 SLP250 T01500006 =
2018-04-24 19:56 METAR KASH 242356Z VRB04KT 10SM CLR 16/M01 A3022 RMK AO2 SLP245 T01611006 10222
                 20161 55001 =
2018-04-24 18:56 METAR KASH 242256Z 17005KT 10SM CLR 18/M01 A3021 RMK AO2 SLP243 T01831011 =
2018-04-24 17:56 METAR KASH 242156Z COR 17008G12KT 130V220 10SM CLR 19/M03 A3022 RMK AO2 SLP245
                 T01941028 =
2018-04-24 16:56 METAR KASH 242056Z COR 21006G16KT 150V250 10SM CLR 20/M04 A3022 RMK AO2 SLP246
                 T02001039 56018 =
2018-04-24 15:56 METAR KASH 241956Z COR 17006G19KT 130V210 10SM CLR 21/M04 A3023 RMK AO2 SLP247
                 T02111039 =
2018-04-24 14:56 METAR KASH 241856Z 20007G14KT 150V230 10SM CLR 21/M03 A3025 RMK AO2 SLP254
                 T02111033 =
2018-04-24 13:56 METAR KASH 241756Z COR 21006G14KT 10SM CLR 21/M04 A3028 RMK AO2 SLP264 T02111044
                 10211 20083 56026 =
2018-04-24 12:56 METAR KASH 241656Z VRB06KT 10SM CLR 20/M04 A3030 RMK AO2 SLP271 T02001044 =
2018-04-24 11:56 METAR KASH 241556Z 20008KT 170V240 10SM CLR 19/M04 A3033 RMK AO2 SLP281
                 T01941039 =
2018-04-24 10:56 METAR KASH 241456Z VRB05KT 10SM CLR 18/M02 A3036 RMK AO2 SLP290 T01831017 58012
                 =
2018-04-24 09:56 METAR KASH 241356Z VRB04KT 10SM CLR 15/M01 A3038 RMK AO2 SLP298 T01501011 =
2018-04-24 08:56 METAR KASH 241256Z 14004KT 10SM CLR 12/M01 A3039 RMK AO2 SLP303 T01221011 =
2018-04-24 07:56 METAR KASH 241156Z VRB03KT 10SM CLR 08/M02 A3039 RMK AO2 SLP303 T00831017 10083
                 20000 51004 =
2018-04-24 06:56 METAR KASH 241056Z 00000KT 10SM CLR 02/M02 A3039 RMK AO2 SLP303 T00221017 =
2018-04-24 05:56 METAR KASH 240956Z AUTO 00000KT 10SM CLR 01/M03 A3038 RMK AO2 SLP300 T00111028 =

Support USWX by starting your Amazon purchase here.